sensor_id;sensor_type;location;lat;lon;timestamp;pressure;altitude;pressure_sealevel;temperature;humidity
24762;BME280;12865;51.934;10.330;2024-02-21T00:02:14;99601.56;;;7.73;100.00
24762;BME280;12865;51.934;10.330;2024-02-21T00:05:00;99589.97;;;7.74;100.00
24762;BME280;12865;51.934;10.330;2024-02-21T00:07:46;99586.31;;;7.64;100.00
24762;BME280;12865;51.934;10.330;2024-02-21T00:10:32;99591.00;;;7.60;100.00
24762;BME280;12865;51.934;10.330;2024-02-21T00:13:18;99569.16;;;7.57;100.00
24762;BME280;12865;51.934;10.330;2024-02-21T00:16:04;99574.69;;;7.54;100.00
24762;BME280;12865;51.934;10.330;2024-02-21T00:18:50;99571.19;;;7.53;100.00
24762;BME280;12865;51.934;10.330;2024-02-21T00:21:35;99572.78;;;7.56;100.00
24762;BME280;12865;51.934;10.330;2024-02-21T00:24:21;99574.88;;;7.50;100.00
24762;BME280;12865;51.934;10.330;2024-02-21T00:27:07;99570.13;;;7.43;100.00
24762;BME280;12865;51.934;10.330;2024-02-21T00:29:52;99568.03;;;7.48;100.00
24762;BME280;12865;51.934;10.330;2024-02-21T00:32:38;99564.63;;;7.46;100.00
24762;BME280;12865;51.934;10.330;2024-02-21T00:35:24;99566.03;;;7.39;100.00
24762;BME280;12865;51.934;10.330;2024-02-21T00:38:10;99578.22;;;7.41;100.00
24762;BME280;12865;51.934;10.330;2024-02-21T00:40:56;99597.84;;;7.39;100.00
24762;BME280;12865;51.934;10.330;2024-02-21T00:43:41;99593.19;;;7.42;100.00
24762;BME280;12865;51.934;10.330;2024-02-21T00:46:27;99595.09;;;7.40;100.00
24762;BME280;12865;51.934;10.330;2024-02-21T00:49:13;99599.09;;;7.46;100.00
24762;BME280;12865;51.934;10.330;2024-02-21T00:51:59;99589.69;;;7.42;100.00
24762;BME280;12865;51.934;10.330;2024-02-21T00:54:44;99588.31;;;7.36;100.00
24762;BME280;12865;51.934;10.330;2024-02-21T00:57:30;99587.88;;;7.42;100.00
24762;BME280;12865;51.934;10.330;2024-02-21T01:00:16;99591.69;;;7.38;100.00
24762;BME280;12865;51.934;10.330;2024-02-21T01:03:02;99586.59;;;7.48;100.00
24762;BME280;12865;51.934;10.330;2024-02-21T01:05:48;99584.66;;;7.50;100.00
24762;BME280;12865;51.934;10.330;2024-02-21T01:08:33;99578.53;;;7.49;100.00
24762;BME280;12865;51.934;10.330;2024-02-21T01:11:19;99572.06;;;7.41;100.00
24762;BME280;12865;51.934;10.330;2024-02-21T01:14:05;99566.41;;;7.45;100.00
24762;BME280;12865;51.934;10.330;2024-02-21T01:16:51;99576.28;;;7.43;100.00
24762;BME280;12865;51.934;10.330;2024-02-21T01:19:37;99583.63;;;7.40;100.00
24762;BME280;12865;51.934;10.330;2024-02-21T01:22:22;99574.78;;;7.52;100.00
24762;BME280;12865;51.934;10.330;2024-02-21T01:25:08;99572.56;;;7.46;100.00
24762;BME280;12865;51.934;10.330;2024-02-21T01:27:54;99569.53;;;7.39;100.00
24762;BME280;12865;51.934;10.330;2024-02-21T01:30:39;99580.53;;;7.46;100.00
24762;BME280;12865;51.934;10.330;2024-02-21T01:33:25;99570.66;;;7.48;100.00
24762;BME280;12865;51.934;10.330;2024-02-21T01:36:11;99563.38;;;7.39;100.00
24762;BME280;12865;51.934;10.330;2024-02-21T01:38:56;99551.81;;;7.40;100.00
24762;BME280;12865;51.934;10.330;2024-02-21T01:41:42;99567.06;;;7.49;100.00
24762;BME280;12865;51.934;10.330;2024-02-21T01:44:28;99564.41;;;7.49;100.00
24762;BME280;12865;51.934;10.330;2024-02-21T01:47:14;99562.72;;;7.48;100.00
24762;BME280;12865;51.934;10.330;2024-02-21T01:50:01;99551.56;;;7.43;100.00
24762;BME280;12865;51.934;10.330;2024-02-21T01:52:48;99549.66;;;7.45;100.00
24762;BME280;12865;51.934;10.330;2024-02-21T01:55:35;99543.69;;;7.54;100.00
24762;BME280;12865;51.934;10.330;2024-02-21T01:58:21;99542.19;;;7.50;100.00
24762;BME280;12865;51.934;10.330;2024-02-21T02:01:07;99539.50;;;7.39;100.00
24762;BME280;12865;51.934;10.330;2024-02-21T02:03:53;99540.13;;;7.42;100.00
24762;BME280;12865;51.934;10.330;2024-02-21T02:06:41;99538.38;;;7.54;100.00
24762;BME280;12865;51.934;10.330;2024-02-21T02:09:26;99529.06;;;7.48;100.00
24762;BME280;12865;51.934;10.330;2024-02-21T02:12:12;99530.34;;;7.43;100.00
24762;BME280;12865;51.934;10.330;2024-02-21T02:15:02;99533.13;;;7.41;100.00
24762;BME280;12865;51.934;10.330;2024-02-21T02:17:51;99526.03;;;7.42;100.00
24762;BME280;12865;51.934;10.330;2024-02-21T02:20:36;99508.91;;;7.46;100.00
24762;BME280;12865;51.934;10.330;2024-02-21T02:23:31;99512.31;;;7.48;100.00
24762;BME280;12865;51.934;10.330;2024-02-21T02:26:17;99514.69;;;7.40;100.00
24762;BME280;12865;51.934;10.330;2024-02-21T02:29:03;99507.00;;;7.48;100.00
24762;BME280;12865;51.934;10.330;2024-02-21T02:31:49;99508.91;;;7.46;100.00
24762;BME280;12865;51.934;10.330;2024-02-21T02:34:35;99512.31;;;7.48;100.00
24762;BME280;12865;51.934;10.330;2024-02-21T02:37:20;99496.41;;;7.48;100.00
24762;BME280;12865;51.934;10.330;2024-02-21T02:40:07;99486.50;;;7.50;100.00
24762;BME280;12865;51.934;10.330;2024-02-21T02:42:53;99495.09;;;7.54;100.00
24762;BME280;12865;51.934;10.330;2024-02-21T02:45:44;99499.53;;;7.53;100.00
24762;BME280;12865;51.934;10.330;2024-02-21T02:48:30;99484.47;;;7.54;100.00
24762;BME280;12865;51.934;10.330;2024-02-21T02:51:15;99470.53;;;7.63;100.00
24762;BME280;12865;51.934;10.330;2024-02-21T02:54:02;99471.25;;;7.65;100.00
24762;BME280;12865;51.934;10.330;2024-02-21T02:56:49;99475.97;;;7.72;100.00
24762;BME280;12865;51.934;10.330;2024-02-21T02:59:35;99467.88;;;7.63;100.00
24762;BME280;12865;51.934;10.330;2024-02-21T03:02:21;99449.31;;;7.63;100.00
24762;BME280;12865;51.934;10.330;2024-02-21T03:05:14;99449.16;;;7.64;100.00
24762;BME280;12865;51.934;10.330;2024-02-21T03:08:00;99447.94;;;7.57;100.00
24762;BME280;12865;51.934;10.330;2024-02-21T03:10:46;99445.28;;;7.57;100.00
24762;BME280;12865;51.934;10.330;2024-02-21T03:13:31;99441.19;;;7.64;100.00
24762;BME280;12865;51.934;10.330;2024-02-21T03:16:17;99439.28;;;7.66;100.00
24762;BME280;12865;51.934;10.330;2024-02-21T03:19:03;99447.63;;;7.73;100.00
24762;BME280;12865;51.934;10.330;2024-02-21T03:21:49;99458.88;;;7.76;100.00
24762;BME280;12865;51.934;10.330;2024-02-21T03:24:35;99450.91;;;7.76;100.00
24762;BME280;12865;51.934;10.330;2024-02-21T03:27:21;99445.50;;;7.78;100.00
24762;BME280;12865;51.934;10.330;2024-02-21T03:30:07;99453.69;;;7.75;100.00
24762;BME280;12865;51.934;10.330;2024-02-21T03:32:52;99449.97;;;7.77;100.00
24762;BME280;12865;51.934;10.330;2024-02-21T03:35:38;99447.16;;;7.79;100.00
24762;BME280;12865;51.934;10.330;2024-02-21T03:38:24;99450.19;;;7.74;100.00
24762;BME280;12865;51.934;10.330;2024-02-21T03:41:09;99447.53;;;7.74;100.00
24762;BME280;12865;51.934;10.330;2024-02-21T03:43:55;99435.94;;;7.75;100.00
24762;BME280;12865;51.934;10.330;2024-02-21T03:46:41;99436.53;;;7.79;100.00
24762;BME280;12865;51.934;10.330;2024-02-21T03:49:26;99433.66;;;7.71;100.00
24762;BME280;12865;51.934;10.330;2024-02-21T03:52:12;99422.31;;;7.80;100.00
24762;BME280;12865;51.934;10.330;2024-02-21T03:54:58;99416.41;;;7.76;100.00
24762;BME280;12865;51.934;10.330;2024-02-21T03:57:44;99418.13;;;7.77;100.00
24762;BME280;12865;51.934;10.330;2024-02-21T04:00:29;99410.38;;;7.74;100.00
24762;BME280;12865;51.934;10.330;2024-02-21T04:03:15;99387.81;;;7.69;100.00
24762;BME280;12865;51.934;10.330;2024-02-21T04:06:01;99389.84;;;7.65;100.00
24762;BME280;12865;51.934;10.330;2024-02-21T04:08:46;99377.31;;;7.67;100.00
24762;BME280;12865;51.934;10.330;2024-02-21T04:11:32;99370.56;;;7.74;100.00
24762;BME280;12865;51.934;10.330;2024-02-21T04:14:18;99358.25;;;7.73;100.00
24762;BME280;12865;51.934;10.330;2024-02-21T04:17:03;99362.22;;;7.79;100.00
24762;BME280;12865;51.934;10.330;2024-02-21T04:19:56;99354.03;;;7.82;100.00
24762;BME280;12865;51.934;10.330;2024-02-21T04:22:47;99359.59;;;7.79;100.00
24762;BME280;12865;51.934;10.330;2024-02-21T04:25:33;99366.00;;;7.87;100.00
24762;BME280;12865;51.934;10.330;2024-02-21T04:28:18;99357.28;;;7.74;100.00
24762;BME280;12865;51.934;10.330;2024-02-21T04:31:04;99338.94;;;7.71;100.00
24762;BME280;12865;51.934;10.330;2024-02-21T04:33:50;99349.56;;;7.71;100.00
24762;BME280;12865;51.934;10.330;2024-02-21T04:36:35;99336.44;;;7.70;100.00
24762;BME280;12865;51.934;10.330;2024-02-21T04:39:21;99326.41;;;7.62;100.00
24762;BME280;12865;51.934;10.330;2024-02-21T04:42:07;99312.41;;;7.60;100.00
24762;BME280;12865;51.934;10.330;2024-02-21T04:44:52;99297.44;;;7.59;100.00
24762;BME280;12865;51.934;10.330;2024-02-21T04:47:38;99304.44;;;7.60;100.00
24762;BME280;12865;51.934;10.330;2024-02-21T04:50:24;99313.38;;;7.59;100.00
24762;BME280;12865;51.934;10.330;2024-02-21T04:53:10;99306.25;;;7.60;100.00
24762;BME280;12865;51.934;10.330;2024-02-21T04:55:55;99315.16;;;7.59;100.00
24762;BME280;12865;51.934;10.330;2024-02-21T04:58:41;99315.16;;;7.59;100.00
24762;BME280;12865;51.934;10.330;2024-02-21T05:01:28;99314.00;;;7.63;100.00
24762;BME280;12865;51.934;10.330;2024-02-21T05:04:14;99319.88;;;7.66;100.00
24762;BME280;12865;51.934;10.330;2024-02-21T05:07:00;99331.81;;;7.61;100.00
24762;BME280;12865;51.934;10.330;2024-02-21T05:09:46;99346.06;;;7.60;100.00
24762;BME280;12865;51.934;10.330;2024-02-21T05:12:32;99347.63;;;7.62;100.00
24762;BME280;12865;51.934;10.330;2024-02-21T05:15:17;99349.69;;;7.70;100.00
24762;BME280;12865;51.934;10.330;2024-02-21T05:18:03;99349.19;;;7.65;100.00
24762;BME280;12865;51.934;10.330;2024-02-21T05:20:49;99347.03;;;7.70;100.00
24762;BME280;12865;51.934;10.330;2024-02-21T05:23:35;99350.56;;;7.70;100.00
24762;BME280;12865;51.934;10.330;2024-02-21T05:26:21;99362.44;;;7.65;100.00
24762;BME280;12865;51.934;10.330;2024-02-21T05:29:08;99356.28;;;7.64;100.00
24762;BME280;12865;51.934;10.330;2024-02-21T05:34:39;99367.91;;;7.63;100.00
24762;BME280;12865;51.934;10.330;2024-02-21T05:37:25;99382.72;;;7.66;100.00
24762;BME280;12865;51.934;10.330;2024-02-21T05:40:11;99391.56;;;7.77;100.00
24762;BME280;12865;51.934;10.330;2024-02-21T05:42:58;99385.53;;;7.75;100.00
24762;BME280;12865;51.934;10.330;2024-02-21T05:45:44;99399.97;;;7.71;100.00
24762;BME280;12865;51.934;10.330;2024-02-21T05:48:29;99400.59;;;7.75;100.00
24762;BME280;12865;51.934;10.330;2024-02-21T05:51:15;99394.09;;;7.79;100.00
24762;BME280;12865;51.934;10.330;2024-02-21T05:54:01;99402.41;;;7.85;100.00
24762;BME280;12865;51.934;10.330;2024-02-21T05:56:47;99397.00;;;7.76;100.00
24762;BME280;12865;51.934;10.330;2024-02-21T05:59:33;99399.16;;;7.71;100.00
24762;BME280;12865;51.934;10.330;2024-02-21T06:02:18;99404.09;;;7.75;100.00
24762;BME280;12865;51.934;10.330;2024-02-21T06:05:06;99392.53;;;7.76;100.00
24762;BME280;12865;51.934;10.330;2024-02-21T06:07:53;99381.19;;;7.74;100.00
24762;BME280;12865;51.934;10.330;2024-02-21T06:10:38;99382.88;;;7.75;100.00
24762;BME280;12865;51.934;10.330;2024-02-21T06:13:24;99377.09;;;7.81;100.00
24762;BME280;12865;51.934;10.330;2024-02-21T06:16:10;99396.03;;;7.77;100.00
24762;BME280;12865;51.934;10.330;2024-02-21T06:18:55;99385.75;;;7.72;100.00
24762;BME280;12865;51.934;10.330;2024-02-21T06:21:41;99384.19;;;7.70;100.00
24762;BME280;12865;51.934;10.330;2024-02-21T06:24:27;99379.97;;;7.67;100.00
24762;BME280;12865;51.934;10.330;2024-02-21T06:27:12;99375.13;;;7.61;100.00
24762;BME280;12865;51.934;10.330;2024-02-21T06:30:00;99373.59;;;7.70;100.00
24762;BME280;12865;51.934;10.330;2024-02-21T06:32:46;99372.72;;;7.69;100.00
24762;BME280;12865;51.934;10.330;2024-02-21T06:35:32;99356.19;;;7.66;100.00
24762;BME280;12865;51.934;10.330;2024-02-21T06:38:17;99358.13;;;7.64;100.00
24762;BME280;12865;51.934;10.330;2024-02-21T06:41:03;99352.09;;;7.73;100.00
24762;BME280;12865;51.934;10.330;2024-02-21T06:43:50;99343.19;;;7.74;100.00
24762;BME280;12865;51.934;10.330;2024-02-21T06:46:36;99334.38;;;7.73;100.00
24762;BME280;12865;51.934;10.330;2024-02-21T06:49:22;99333.66;;;7.82;100.00
24762;BME280;12865;51.934;10.330;2024-02-21T06:52:08;99340.16;;;7.78;100.00
24762;BME280;12865;51.934;10.330;2024-02-21T06:54:53;99340.16;;;7.78;100.00
24762;BME280;12865;51.934;10.330;2024-02-21T06:57:39;99335.34;;;7.72;100.00
24762;BME280;12865;51.934;10.330;2024-02-21T07:00:25;99340.31;;;7.77;100.00
24762;BME280;12865;51.934;10.330;2024-02-21T07:03:12;99342.69;;;7.80;100.00
24762;BME280;12865;51.934;10.330;2024-02-21T07:05:57;99342.69;;;7.80;100.00
24762;BME280;12865;51.934;10.330;2024-02-21T07:08:43;99332.09;;;7.80;100.00
24762;BME280;12865;51.934;10.330;2024-02-21T07:11:29;99342.34;;;7.84;100.00
24762;BME280;12865;51.934;10.330;2024-02-21T07:14:14;99338.00;;;7.83;100.00
24762;BME280;12865;51.934;10.330;2024-02-21T07:17:01;99333.19;;;7.88;100.00
24762;BME280;12865;51.934;10.330;2024-02-21T07:19:47;99339.44;;;7.87;100.00
24762;BME280;12865;51.934;10.330;2024-02-21T07:22:32;99337.41;;;8.02;100.00
24762;BME280;12865;51.934;10.330;2024-02-21T07:25:18;99338.59;;;7.87;100.00
24762;BME280;12865;51.934;10.330;2024-02-21T07:28:04;99331.97;;;7.93;100.00
24762;BME280;12865;51.934;10.330;2024-02-21T07:30:50;99324.72;;;7.95;100.00
24762;BME280;12865;51.934;10.330;2024-02-21T07:33:35;99328.22;;;7.95;100.00
24762;BME280;12865;51.934;10.330;2024-02-21T07:36:29;99334.00;;;8.00;100.00
24762;BME280;12865;51.934;10.330;2024-02-21T07:39:15;99335.81;;;8.00;100.00
24762;BME280;12865;51.934;10.330;2024-02-21T07:42:02;99322.69;;;7.98;100.00
24762;BME280;12865;51.934;10.330;2024-02-21T07:44:47;99314.97;;;7.95;100.00
24762;BME280;12865;51.934;10.330;2024-02-21T07:47:33;99313.63;;;8.01;100.00
24762;BME280;12865;51.934;10.330;2024-02-21T07:50:19;99324.25;;;8.01;100.00
24762;BME280;12865;51.934;10.330;2024-02-21T07:53:04;99325.56;;;8.06;100.00
24762;BME280;12865;51.934;10.330;2024-02-21T07:55:50;99322.09;;;8.06;100.00
24762;BME280;12865;51.934;10.330;2024-02-21T07:58:36;99324.59;;;8.07;100.00
24762;BME280;12865;51.934;10.330;2024-02-21T08:01:21;99331.03;;;8.05;100.00
24762;BME280;12865;51.934;10.330;2024-02-21T08:04:07;99339.09;;;8.03;100.00
24762;BME280;12865;51.934;10.330;2024-02-21T08:06:53;99336.56;;;8.13;100.00
24762;BME280;12865;51.934;10.330;2024-02-21T08:09:41;99343.81;;;8.11;100.00
24762;BME280;12865;51.934;10.330;2024-02-21T08:12:26;99349.47;;;8.17;100.00
24762;BME280;12865;51.934;10.330;2024-02-21T08:15:12;99346.81;;;8.17;100.00
24762;BME280;12865;51.934;10.330;2024-02-21T08:17:58;99352.50;;;8.24;100.00
24762;BME280;12865;51.934;10.330;2024-02-21T08:20:46;99345.13;;;8.16;100.00
24762;BME280;12865;51.934;10.330;2024-02-21T08:23:32;99349.59;;;8.16;100.00
24762;BME280;12865;51.934;10.330;2024-02-21T08:26:18;99337.63;;;8.21;100.00
24762;BME280;12865;51.934;10.330;2024-02-21T08:29:03;99336.09;;;8.19;100.00
24762;BME280;12865;51.934;10.330;2024-02-21T08:31:49;99338.47;;;8.22;100.00
24762;BME280;12865;51.934;10.330;2024-02-21T08:34:35;99331.25;;;8.24;100.00
24762;BME280;12865;51.934;10.330;2024-02-21T08:37:21;99331.97;;;8.26;100.00
24762;BME280;12865;51.934;10.330;2024-02-21T08:40:07;99329.09;;;8.40;100.00
24762;BME280;12865;51.934;10.330;2024-02-21T08:42:53;99331.13;;;8.37;100.00
24762;BME280;12865;51.934;10.330;2024-02-21T08:45:39;99323.28;;;8.35;100.00
24762;BME280;12865;51.934;10.330;2024-02-21T08:48:25;99311.47;;;8.39;100.00
24762;BME280;12865;51.934;10.330;2024-02-21T08:51:11;99312.38;;;8.49;100.00
24762;BME280;12865;51.934;10.330;2024-02-21T08:53:58;99302.38;;;8.42;100.00
24762;BME280;12865;51.934;10.330;2024-02-21T08:56:44;99320.00;;;8.43;100.00
24762;BME280;12865;51.934;10.330;2024-02-21T08:59:29;99294.75;;;8.48;100.00
24762;BME280;12865;51.934;10.330;2024-02-21T09:02:15;99297.41;;;8.48;100.00
24762;BME280;12865;51.934;10.330;2024-02-21T09:05:02;99296.72;;;8.46;100.00
24762;BME280;12865;51.934;10.330;2024-02-21T09:07:47;99291.84;;;8.51;100.00
24762;BME280;12865;51.934;10.330;2024-02-21T09:10:33;99283.88;;;8.51;100.00
24762;BME280;12865;51.934;10.330;2024-02-21T09:13:19;99281.97;;;8.53;100.00
24762;BME280;12865;51.934;10.330;2024-02-21T09:16:05;99284.84;;;8.61;100.00
24762;BME280;12865;51.934;10.330;2024-02-21T09:18:51;99288.06;;;8.65;100.00
24762;BME280;12865;51.934;10.330;2024-02-21T09:21:38;99288.16;;;8.75;100.00
24762;BME280;12865;51.934;10.330;2024-02-21T09:24:23;99288.75;;;8.78;100.00
24762;BME280;12865;51.934;10.330;2024-02-21T09:27:09;99280.66;;;8.80;100.00
24762;BME280;12865;51.934;10.330;2024-02-21T09:29:55;99295.94;;;8.66;100.00
24762;BME280;12865;51.934;10.330;2024-02-21T09:32:40;99297.22;;;8.72;100.00
24762;BME280;12865;51.934;10.330;2024-02-21T09:35:26;99289.91;;;8.85;100.00
24762;BME280;12865;51.934;10.330;2024-02-21T09:38:13;99282.34;;;8.81;100.00
24762;BME280;12865;51.934;10.330;2024-02-21T09:41:31;99279.75;;;8.90;100.00
24762;BME280;12865;51.934;10.330;2024-02-21T09:44:21;99285.44;;;8.86;100.00
24762;BME280;12865;51.934;10.330;2024-02-21T09:47:10;99280.56;;;9.02;100.00
24762;BME280;12865;51.934;10.330;2024-02-21T09:50:00;99278.09;;;9.10;100.00
24762;BME280;12865;51.934;10.330;2024-02-21T09:52:48;99278.03;;;9.21;100.00
24762;BME280;12865;51.934;10.330;2024-02-21T09:55:35;99288.88;;;9.29;100.00
24762;BME280;12865;51.934;10.330;2024-02-21T09:58:21;99276.44;;;9.39;100.00
24762;BME280;12865;51.934;10.330;2024-02-21T10:01:07;99272.38;;;9.35;100.00
24762;BME280;12865;51.934;10.330;2024-02-21T10:03:54;99274.38;;;9.43;100.00
24762;BME280;12865;51.934;10.330;2024-02-21T10:06:39;99282.94;;;9.46;100.00
24762;BME280;12865;51.934;10.330;2024-02-21T10:09:27;99283.00;;;9.56;100.00
24762;BME280;12865;51.934;10.330;2024-02-21T10:12:16;99277.81;;;9.55;100.00
24762;BME280;12865;51.934;10.330;2024-02-21T10:15:06;99267.72;;;9.79;100.00
24762;BME280;12865;51.934;10.330;2024-02-21T10:17:58;99261.72;;;9.96;100.00
24762;BME280;12865;51.934;10.330;2024-02-21T10:20:45;99265.97;;;9.99;99.97
24762;BME280;12865;51.934;10.330;2024-02-21T10:23:46;99267.59;;;9.90;96.90
24762;BME280;12865;51.934;10.330;2024-02-21T10:26:32;99255.97;;;9.91;97.51
24762;BME280;12865;51.934;10.330;2024-02-21T10:29:18;99257.13;;;9.98;97.13
24762;BME280;12865;51.934;10.330;2024-02-21T10:32:07;99256.28;;;9.98;97.06
24762;BME280;12865;51.934;10.330;2024-02-21T10:35:01;99256.56;;;10.04;95.34
24762;BME280;12865;51.934;10.330;2024-02-21T10:37:47;99255.25;;;9.89;96.18
24762;BME280;12865;51.934;10.330;2024-02-21T10:40:33;99246.09;;;10.12;94.89
24762;BME280;12865;51.934;10.330;2024-02-21T10:43:19;99238.19;;;9.92;95.70
24762;BME280;12865;51.934;10.330;2024-02-21T10:46:06;99223.22;;;10.00;96.95
24762;BME280;12865;51.934;10.330;2024-02-21T10:49:04;99207.09;;;10.02;97.59
24762;BME280;12865;51.934;10.330;2024-02-21T10:52:19;99196.19;;;10.14;97.57
24762;BME280;12865;51.934;10.330;2024-02-21T10:55:16;99206.09;;;10.03;97.18
24762;BME280;12865;51.934;10.330;2024-02-21T10:58:04;99197.59;;;10.09;96.73
24762;BME280;12865;51.934;10.330;2024-02-21T11:00:50;99192.38;;;9.98;96.74
24762;BME280;12865;51.934;10.330;2024-02-21T11:03:37;99194.47;;;10.04;96.36
24762;BME280;12865;51.934;10.330;2024-02-21T11:06:24;99181.16;;;9.94;98.69
24762;BME280;12865;51.934;10.330;2024-02-21T11:09:11;99180.47;;;10.11;97.17
24762;BME280;12865;51.934;10.330;2024-02-21T11:11:57;99175.44;;;10.08;96.52
24762;BME280;12865;51.934;10.330;2024-02-21T11:14:44;99168.53;;;9.87;98.96
24762;BME280;12865;51.934;10.330;2024-02-21T11:17:29;99152.72;;;9.95;96.29
24762;BME280;12865;51.934;10.330;2024-02-21T11:20:15;99154.66;;;10.02;95.35
24762;BME280;12865;51.934;10.330;2024-02-21T11:23:01;99161.53;;;10.05;95.36
24762;BME280;12865;51.934;10.330;2024-02-21T11:25:47;99146.53;;;9.94;96.27
24762;BME280;12865;51.934;10.330;2024-02-21T11:28:32;99135.34;;;10.00;95.92
24762;BME280;12865;51.934;10.330;2024-02-21T11:31:18;99132.25;;;10.14;93.49
24762;BME280;12865;51.934;10.330;2024-02-21T11:34:04;99139.25;;;10.06;93.03
24762;BME280;12865;51.934;10.330;2024-02-21T11:36:51;99131.25;;;10.06;92.34
24762;BME280;12865;51.934;10.330;2024-02-21T11:39:38;99108.03;;;10.17;93.61
24762;BME280;12865;51.934;10.330;2024-02-21T11:42:25;99112.19;;;10.10;92.92
24762;BME280;12865;51.934;10.330;2024-02-21T11:45:11;99108.13;;;10.06;92.98
24762;BME280;12865;51.934;10.330;2024-02-21T11:47:56;99096.38;;;10.18;92.61
24762;BME280;12865;51.934;10.330;2024-02-21T11:50:42;99090.63;;;10.13;93.88
24762;BME280;12865;51.934;10.330;2024-02-21T11:53:37;99092.03;;;10.08;93.55
24762;BME280;12865;51.934;10.330;2024-02-21T11:56:23;99085.72;;;10.18;94.07
24762;BME280;12865;51.934;10.330;2024-02-21T11:59:09;99092.16;;;9.87;93.28
24762;BME280;12865;51.934;10.330;2024-02-21T12:01:54;99078.13;;;10.04;93.94
24762;BME280;12865;51.934;10.330;2024-02-21T12:04:42;99075.59;;;10.12;93.87
24762;BME280;12865;51.934;10.330;2024-02-21T12:07:27;99069.16;;;10.05;93.86
24762;BME280;12865;51.934;10.330;2024-02-21T12:10:14;99060.78;;;10.19;92.11
24762;BME280;12865;51.934;10.330;2024-02-21T12:13:07;99072.09;;;10.12;94.12
24762;BME280;12865;51.934;10.330;2024-02-21T12:15:53;99059.38;;;10.15;93.10
24762;BME280;12865;51.934;10.330;2024-02-21T12:18:39;99051.78;;;9.92;94.68
24762;BME280;12865;51.934;10.330;2024-02-21T12:21:31;99036.78;;;10.00;95.67
24762;BME280;12865;51.934;10.330;2024-02-21T12:24:23;99042.25;;;10.08;95.33
24762;BME280;12865;51.934;10.330;2024-02-21T12:27:09;99037.50;;;10.21;96.92
24762;BME280;12865;51.934;10.330;2024-02-21T12:29:54;99021.53;;;10.21;96.51
24762;BME280;12865;51.934;10.330;2024-02-21T12:32:40;99004.66;;;10.31;97.38
24762;BME280;12865;51.934;10.330;2024-02-21T12:35:26;98999.06;;;10.34;94.83
24762;BME280;12865;51.934;10.330;2024-02-21T12:38:12;99002.69;;;10.33;94.54
24762;BME280;12865;51.934;10.330;2024-02-21T12:40:59;99005.22;;;10.44;96.22
24762;BME280;12865;51.934;10.330;2024-02-21T12:43:45;98998.72;;;10.56;94.61
24762;BME280;12865;51.934;10.330;2024-02-21T12:46:35;98997.19;;;10.53;95.02
24762;BME280;12865;51.934;10.330;2024-02-21T12:49:21;98993.63;;;10.72;96.04
24762;BME280;12865;51.934;10.330;2024-02-21T12:52:07;98986.53;;;10.53;96.94
24762;BME280;12865;51.934;10.330;2024-02-21T12:54:52;98978.91;;;10.58;95.59
24762;BME280;12865;51.934;10.330;2024-02-21T12:57:42;98978.06;;;10.68;94.99
24762;BME280;12865;51.934;10.330;2024-02-21T13:00:27;98988.00;;;10.66;96.25
24762;BME280;12865;51.934;10.330;2024-02-21T13:03:14;98991.03;;;10.80;94.94
24762;BME280;12865;51.934;10.330;2024-02-21T13:05:59;98987.97;;;10.85;95.60
24762;BME280;12865;51.934;10.330;2024-02-21T13:08:45;98982.88;;;10.91;95.23
24762;BME280;12865;51.934;10.330;2024-02-21T13:11:31;98980.38;;;11.08;94.02
24762;BME280;12865;51.934;10.330;2024-02-21T13:14:17;98980.88;;;10.93;92.41
24762;BME280;12865;51.934;10.330;2024-02-21T13:17:03;98980.06;;;10.93;92.70
24762;BME280;12865;51.934;10.330;2024-02-21T13:19:49;98980.13;;;10.74;93.97
24762;BME280;12865;51.934;10.330;2024-02-21T13:22:34;98976.47;;;10.38;95.23
24762;BME280;12865;51.934;10.330;2024-02-21T13:25:20;98986.25;;;10.47;94.40
24762;BME280;12865;51.934;10.330;2024-02-21T13:28:06;98975.59;;;10.47;94.97
24762;BME280;12865;51.934;10.330;2024-02-21T13:30:52;98974.63;;;10.48;96.14
24762;BME280;12865;51.934;10.330;2024-02-21T13:33:38;98964.69;;;10.40;96.63
24762;BME280;12865;51.934;10.330;2024-02-21T13:36:23;98949.72;;;10.30;96.89
24762;BME280;12865;51.934;10.330;2024-02-21T13:39:09;98947.31;;;10.36;97.04
24762;BME280;12865;51.934;10.330;2024-02-21T13:41:58;98937.50;;;10.37;97.10
24762;BME280;12865;51.934;10.330;2024-02-21T13:44:44;98920.22;;;10.41;96.37
24762;BME280;12865;51.934;10.330;2024-02-21T13:47:30;98907.88;;;10.40;97.32
24762;BME280;12865;51.934;10.330;2024-02-21T13:50:16;98906.63;;;10.44;96.70
24762;BME280;12865;51.934;10.330;2024-02-21T13:53:03;98892.00;;;10.48;97.43
24762;BME280;12865;51.934;10.330;2024-02-21T13:55:49;98887.66;;;10.47;95.63
24762;BME280;12865;51.934;10.330;2024-02-21T13:58:35;98877.72;;;10.39;96.88
24762;BME280;12865;51.934;10.330;2024-02-21T14:01:21;98869.88;;;10.38;97.03
24762;BME280;12865;51.934;10.330;2024-02-21T14:04:07;98863.44;;;10.31;98.25
24762;BME280;12865;51.934;10.330;2024-02-21T14:06:52;98857.59;;;10.27;98.13
24762;BME280;12865;51.934;10.330;2024-02-21T14:09:38;98852.28;;;10.17;99.69
24762;BME280;12865;51.934;10.330;2024-02-21T14:12:24;98861.97;;;10.18;99.68
24762;BME280;12865;51.934;10.330;2024-02-21T14:15:10;98840.66;;;10.18;99.39
24762;BME280;12865;51.934;10.330;2024-02-21T14:17:56;98832.38;;;10.12;98.97
24762;BME280;12865;51.934;10.330;2024-02-21T14:20:42;98821.34;;;9.97;100.00
24762;BME280;12865;51.934;10.330;2024-02-21T14:23:28;98813.97;;;9.81;100.00
24762;BME280;12865;51.934;10.330;2024-02-21T14:26:14;98796.78;;;9.76;100.00
24762;BME280;12865;51.934;10.330;2024-02-21T14:29:00;98790.31;;;9.78;100.00
24762;BME280;12865;51.934;10.330;2024-02-21T14:31:46;98795.72;;;9.59;100.00
24762;BME280;12865;51.934;10.330;2024-02-21T14:34:32;98814.75;;;9.64;100.00